Rio Blanco — D5BO9 — position and weather

sailwx.info

Track history (hours):
 
Tides and Currents Weather Stations Pressure Air Temp Water Temp Dewpoint Dewpoint Depression Visibility Wind Speed Wind Dir Waves Ship Positions

Rio Blanco

Last reported at 2015-Apr-01 16:32 UTC. Time now 2015-Apr-01 16:39 UTC.
Position N 39°13' E 009°04'.

Length 286 m; draft 12.2 m.

Type: Ship (hazmat cat A). MMSI: 636092395.

Date/timePositionNaut miles runAvg speedWind from/ knotsBaromVisibWave heightAir tempDewpointWater temp
2015-Apr-01 16:32N 39°13' E 009°04'0 0.0
2015-Apr-01 15:32N 39°13' E 009°04'0 0.0
2015-Apr-01 14:32N 39°13' E 009°04'0 0.0
2015-Apr-01 13:32N 39°13' E 009°04'0 0.0
2015-Apr-01 12:32N 39°13' E 009°04'0 0.0
2015-Apr-01 11:32N 39°13' E 009°04'0 0.0
2015-Apr-01 10:32N 39°13' E 009°04'0 0.0
2015-Apr-01 09:32N 39°13' E 009°04'0 0.0
2015-Apr-01 08:32N 39°13' E 009°04'0 0.0
2015-Apr-01 07:32N 39°13' E 009°04'0 0.0
2015-Apr-01 06:32N 39°13' E 009°04'0 0.0
2015-Apr-01 05:32N 39°13' E 009°04'0 0.0
2015-Apr-01 04:32N 39°13' E 009°04'0 0.0
2015-Apr-01 03:32N 39°13' E 009°04'0 0.0
2015-Apr-01 02:32N 39°13' E 009°04'0 0.0
2015-Apr-01 01:32N 39°13' E 009°04'0 0.0
2015-Apr-01 00:32N 39°13' E 009°04'0 0.0
2015-Mar-31 23:32N 39°13' E 009°04'0 0.0
2015-Mar-31 22:32N 39°13' E 009°04'0 0.0
2015-Mar-31 21:32N 39°13' E 009°04'0 0.0
2015-Mar-31 20:32N 39°13' E 009°04'0 0.0
2015-Mar-31 19:32N 39°13' E 009°04'0 0.0
2015-Mar-31 18:32N 39°13' E 009°04'0 0.0
2015-Mar-31 17:32N 39°13' E 009°04'0 0.1
2015-Mar-31 16:33N 39°13' E 009°04'4 4.2
2015-Mar-31 15:33N 39°09' E 009°05'1110.9
2015-Mar-31 14:33N 38°58' E 009°07'1717.5
2015-Mar-31 13:33N 38°46' E 008°51'1717.4
2015-Mar-31 12:33N 38°41' E 008°30'1616.0
2015-Mar-31 11:32N 38°37' E 008°09'17415.1
2015-Mar-31 00:00N 37°48' E 004°36'6915.5 270 / 81023.710.8 0.515.413.4
2015-Mar-30 19:33N 37°29' E 003°12'1515.4
2015-Mar-30 18:33N 37°25' E 002°53'1515.3
2015-Mar-30 17:33N 37°21' E 002°35'1515.3
2015-Mar-30 16:33N 37°16' E 002°17'1715.9
2015-Mar-30 15:30N 37°11' E 001°57'1916.8
2015-Mar-30 14:22N 37°06' E 001°34'3116.8
2015-Mar-30 12:30N 36°58' E 000°56'1515.6
2015-Mar-30 11:33N 36°53' E 000°38'1515.2
2015-Mar-30 10:33N 36°49' E 000°20'1515.4
2015-Mar-30 09:33N 36°45' E 000°01'2015.9
2015-Mar-30 08:18N 36°39' W 000°22'1519.3
2015-Mar-30 07:33N 36°35' W 000°39'2019.7
2015-Mar-30 06:31N 36°30' W 001°04'11517.7
2015-Mar-30 00:00N 36°06' W 003°24'8819.0 270 / 181023.910.8 2.018.512.0
2015-Mar-29 19:21N 35°59' W 005°13'35 1.9
2015-Mar-29 01:18N 35°53' W 005°55'8810.0
2015-Mar-28 16:29N 36°13' W 007°41'1313.4
2015-Mar-28 15:31N 36°17' W 007°56'1613.2
2015-Mar-28 14:16N 36°21' W 008°16'913.2
2015-Mar-28 13:33N 36°24' W 008°27'1313.1
2015-Mar-28 12:33N 36°27' W 008°43'1313.2
2015-Mar-28 11:33N 36°30' W 008°59'1513.2
2015-Mar-28 10:27N 36°34' W 009°17'1313.2
2015-Mar-28 09:27N 36°43' W 009°28'1312.8
2015-Mar-28 08:28N 36°55' W 009°35'1213.1
2015-Mar-28 07:32N 37°07' W 009°38'1313.1
2015-Mar-28 06:31N 37°20' W 009°42'1313.2
2015-Mar-28 05:33N 37°32' W 009°46'1313.1
2015-Mar-28 04:34N 37°45' W 009°49'1313.3
2015-Mar-28 03:33N 37°58' W 009°53'1413.5
2015-Mar-28 02:33N 38°11' W 009°58'1313.4
2015-Mar-28 01:33N 38°24' W 010°02'1313.1
2015-Mar-28 00:34N 38°36' W 010°05'6 9.9
2015-Mar-28 00:00N 38°42' W 010°06'817.3 020 / 191032.410.8 2.014.5 9.7
2015-Mar-27 23:33N 38°50' W 010°06'1413.6
2015-Mar-27 22:33N 39°03' W 010°06'1313.4
2015-Mar-27 21:34N 39°17' W 010°06'1413.3
2015-Mar-27 20:29N 39°31' W 010°06'1413.2
2015-Mar-27 19:27N 39°45' W 010°06'24512.6
2015-Mar-27 00:00N 43°48' W 009°36'31213.0 280 / 141027.3 2.2 1.515.410.0
2015-Mar-26 00:00N 48°24' W 006°06'15612.3 220 / 221007.5 2.2 2.5 9.3 4.3
2015-Mar-25 11:20N 49°58' W 002°55'1011.0
2015-Mar-25 10:27N 50°01' W 002°41'11214.1
2015-Mar-25 02:30N 50°31' E 000°08'1212.7
2015-Mar-25 01:33N 50°34' E 000°26'1211.7
2015-Mar-25 00:33N 50°38' E 000°43'1212.1
2015-Mar-24 23:33N 50°45' E 000°59'1413.8
2015-Mar-24 22:33N 50°54' E 001°16'1616.0
2015-Mar-24 21:34N 51°05' E 001°34'1514.8
2015-Mar-24 20:33N 51°19' E 001°43'1313.1
2015-Mar-24 19:34N 51°32' E 001°44'1212.0
2015-Mar-24 18:34N 51°44' E 001°43'9 9.3
2015-Mar-24 17:34N 51°51' E 001°35'1717.0
2015-Mar-24 16:34N 51°38' E 001°20'1616.3
2015-Mar-24 15:34N 51°29' E 000°57'1414.0
2015-Mar-24 14:34N 51°30' E 000°35'3 3.0
2015-Mar-24 13:34N 51°30' E 000°30'0 0.0
2015-Mar-24 12:32N 51°30' E 000°30'0 0.0
2015-Mar-24 11:32N 51°30' E 000°30'0 0.0
2015-Mar-24 10:32N 51°30' E 000°30'0 0.0
2015-Mar-24 09:32N 51°30' E 000°30'0 0.0
2015-Mar-24 08:32N 51°30' E 000°30'0 0.0
2015-Mar-24 07:32N 51°30' E 000°30'0 0.0
2015-Mar-24 06:32N 51°30' E 000°30'0 0.0
2015-Mar-24 05:29N 51°30' E 000°30'0 0.0
2015-Mar-24 04:32N 51°30' E 000°30'0 0.0
2015-Mar-24 03:29N 51°30' E 000°30'0 0.0
2015-Mar-24 02:32N 51°30' E 000°30'0 0.0
2015-Mar-24 01:32N 51°30' E 000°30'0 0.0
2015-Mar-24 00:32N 51°30' E 000°30'0 0.0
2015-Mar-23 23:32N 51°30' E 000°30'0 0.0
2015-Mar-23 22:32N 51°30' E 000°30'1 1.1
2015-Mar-23 21:33N 51°30' E 000°32'1010.3
2015-Mar-23 20:33N 51°29' E 000°48'1211.7
2015-Mar-23 19:33N 51°32' E 001°07'1515.2
2015-Mar-23 18:33N 51°41' E 001°26'1313.4
2015-Mar-23 17:33N 51°52' E 001°39'5 5.4
2015-Mar-23 16:33N 51°50' E 001°47'8 8.3
2015-Mar-23 15:33N 51°41' E 001°49'1010.4
2015-Mar-23 14:33N 51°33' E 001°39'5 4.6
2015-Mar-23 13:32N 51°33' E 001°31'0 0.1
2015-Mar-23 12:32N 51°33' E 001°31'0 0.1
2015-Mar-23 11:32N 51°32' E 001°31'0 0.0
2015-Mar-23 10:32N 51°32' E 001°31'0 0.1
2015-Mar-23 09:32N 51°32' E 001°31'0 0.4
2015-Mar-23 08:33N 51°33' E 001°32'10 9.7
2015-Mar-23 07:33N 51°30' E 001°47'1211.8
2015-Mar-23 06:34N 51°24' E 002°03'1111.3
2015-Mar-23 05:33N 51°21' E 002°20'1110.9
2015-Mar-23 04:33N 51°23' E 002°37'1211.6
2015-Mar-23 03:33N 51°23' E 002°56'1413.9
2015-Mar-23 02:34N 51°24' E 003°18'1111.2
2015-Mar-23 01:33N 51°26' E 003°36'1010.1
2015-Mar-23 00:34N 51°21' E 003°50'8 8.3
2015-Mar-22 23:34N 51°24' E 004°02'10 9.6
2015-Mar-22 22:34N 51°20' E 004°16'0 0.1
2015-Mar-22 21:33N 51°20' E 004°17'0 0.0
2015-Mar-22 20:33N 51°20' E 004°17'0 0.0
2015-Mar-22 19:33N 51°20' E 004°17'0 0.0
2015-Mar-22 18:33N 51°20' E 004°17'0 0.0
2015-Mar-22 17:33N 51°20' E 004°17'0 0.0
2015-Mar-22 16:33N 51°20' E 004°17'  
Track history (hours):
 
Tides and Currents Weather Stations Pressure Air Temp Water Temp Dewpoint Dewpoint Depression Visibility Wind Speed Wind Dir Waves Ship Positions

Rio Blanco

Last reported at 2015-Apr-01 16:32 UTC. Time now 2015-Apr-01 16:39 UTC.
Position N 39°13' E 009°04'.

Length 286 m; draft 12.2 m.

Type: Ship (hazmat cat A). MMSI: 636092395.

Date/timePositionNaut miles runAvg speedWind from/ knotsBaromVisibWave heightAir tempDewpointWater temp
2015-Apr-01 16:32N 39°13' E 009°04'0 0.0
2015-Apr-01 15:32N 39°13' E 009°04'0 0.0
2015-Apr-01 14:32N 39°13' E 009°04'0 0.0
2015-Apr-01 13:32N 39°13' E 009°04'0 0.0
2015-Apr-01 12:32N 39°13' E 009°04'0 0.0
2015-Apr-01 11:32N 39°13' E 009°04'0 0.0
2015-Apr-01 10:32N 39°13' E 009°04'0 0.0
2015-Apr-01 09:32N 39°13' E 009°04'0 0.0
2015-Apr-01 08:32N 39°13' E 009°04'0 0.0
2015-Apr-01 07:32N 39°13' E 009°04'0 0.0
2015-Apr-01 06:32N 39°13' E 009°04'0 0.0
2015-Apr-01 05:32N 39°13' E 009°04'0 0.0
2015-Apr-01 04:32N 39°13' E 009°04'0 0.0
2015-Apr-01 03:32N 39°13' E 009°04'0 0.0
2015-Apr-01 02:32N 39°13' E 009°04'0 0.0
2015-Apr-01 01:32N 39°13' E 009°04'0 0.0
2015-Apr-01 00:32N 39°13' E 009°04'0 0.0
2015-Mar-31 23:32N 39°13' E 009°04'0 0.0
2015-Mar-31 22:32N 39°13' E 009°04'0 0.0
2015-Mar-31 21:32N 39°13' E 009°04'0 0.0
2015-Mar-31 20:32N 39°13' E 009°04'0 0.0
2015-Mar-31 19:32N 39°13' E 009°04'0 0.0
2015-Mar-31 18:32N 39°13' E 009°04'0 0.0
2015-Mar-31 17:32N 39°13' E 009°04'0 0.1
2015-Mar-31 16:33N 39°13' E 009°04'4 4.2
2015-Mar-31 15:33N 39°09' E 009°05'1110.9
2015-Mar-31 14:33N 38°58' E 009°07'1717.5
2015-Mar-31 13:33N 38°46' E 008°51'1717.4
2015-Mar-31 12:33N 38°41' E 008°30'1616.0
2015-Mar-31 11:32N 38°37' E 008°09'17415.1
2015-Mar-31 00:00N 37°48' E 004°36'6915.5 270 / 81023.710.8 0.515.413.4
2015-Mar-30 19:33N 37°29' E 003°12'1515.4
2015-Mar-30 18:33N 37°25' E 002°53'1515.3
2015-Mar-30 17:33N 37°21' E 002°35'1515.3
2015-Mar-30 16:33N 37°16' E 002°17'1715.9
2015-Mar-30 15:30N 37°11' E 001°57'1916.8
2015-Mar-30 14:22N 37°06' E 001°34'3116.8
2015-Mar-30 12:30N 36°58' E 000°56'1515.6
2015-Mar-30 11:33N 36°53' E 000°38'1515.2
2015-Mar-30 10:33N 36°49' E 000°20'1515.4
2015-Mar-30 09:33N 36°45' E 000°01'2015.9
2015-Mar-30 08:18N 36°39' W 000°22'1519.3
2015-Mar-30 07:33N 36°35' W 000°39'2019.7
2015-Mar-30 06:31N 36°30' W 001°04'11517.7
2015-Mar-30 00:00N 36°06' W 003°24'8819.0 270 / 181023.910.8 2.018.512.0
2015-Mar-29 19:21N 35°59' W 005°13'35 1.9
2015-Mar-29 01:18N 35°53' W 005°55'8810.0
2015-Mar-28 16:29N 36°13' W 007°41'1313.4
2015-Mar-28 15:31N 36°17' W 007°56'1613.2
2015-Mar-28 14:16N 36°21' W 008°16'913.2
2015-Mar-28 13:33N 36°24' W 008°27'1313.1
2015-Mar-28 12:33N 36°27' W 008°43'1313.2
2015-Mar-28 11:33N 36°30' W 008°59'1513.2
2015-Mar-28 10:27N 36°34' W 009°17'1313.2
2015-Mar-28 09:27N 36°43' W 009°28'1312.8
2015-Mar-28 08:28N 36°55' W 009°35'1213.1
2015-Mar-28 07:32N 37°07' W 009°38'1313.1
2015-Mar-28 06:31N 37°20' W 009°42'1313.2
2015-Mar-28 05:33N 37°32' W 009°46'1313.1
2015-Mar-28 04:34N 37°45' W 009°49'1313.3
2015-Mar-28 03:33N 37°58' W 009°53'1413.5
2015-Mar-28 02:33N 38°11' W 009°58'1313.4
2015-Mar-28 01:33N 38°24' W 010°02'1313.1
2015-Mar-28 00:34N 38°36' W 010°05'6 9.9
2015-Mar-28 00:00N 38°42' W 010°06'817.3 020 / 191032.410.8 2.014.5 9.7
2015-Mar-27 23:33N 38°50' W 010°06'1413.6
2015-Mar-27 22:33N 39°03' W 010°06'1313.4
2015-Mar-27 21:34N 39°17' W 010°06'1413.3
2015-Mar-27 20:29N 39°31' W 010°06'1413.2
2015-Mar-27 19:27N 39°45' W 010°06'24512.6
2015-Mar-27 00:00N 43°48' W 009°36'31213.0 280 / 141027.3 2.2 1.515.410.0
2015-Mar-26 00:00N 48°24' W 006°06'15612.3 220 / 221007.5 2.2 2.5 9.3 4.3
2015-Mar-25 11:20N 49°58' W 002°55'1011.0
2015-Mar-25 10:27N 50°01' W 002°41'11214.1
2015-Mar-25 02:30N 50°31' E 000°08'1212.7
2015-Mar-25 01:33N 50°34' E 000°26'1211.7
2015-Mar-25 00:33N 50°38' E 000°43'1212.1
2015-Mar-24 23:33N 50°45' E 000°59'1413.8
2015-Mar-24 22:33N 50°54' E 001°16'1616.0
2015-Mar-24 21:34N 51°05' E 001°34'1514.8
2015-Mar-24 20:33N 51°19' E 001°43'1313.1
2015-Mar-24 19:34N 51°32' E 001°44'1212.0
2015-Mar-24 18:34N 51°44' E 001°43'9 9.3
2015-Mar-24 17:34N 51°51' E 001°35'1717.0
2015-Mar-24 16:34N 51°38' E 001°20'1616.3
2015-Mar-24 15:34N 51°29' E 000°57'1414.0
2015-Mar-24 14:34N 51°30' E 000°35'3 3.0
2015-Mar-24 13:34N 51°30' E 000°30'0 0.0
2015-Mar-24 12:32N 51°30' E 000°30'0 0.0
2015-Mar-24 11:32N 51°30' E 000°30'0 0.0
2015-Mar-24 10:32N 51°30' E 000°30'0 0.0
2015-Mar-24 09:32N 51°30' E 000°30'0 0.0
2015-Mar-24 08:32N 51°30' E 000°30'0 0.0
2015-Mar-24 07:32N 51°30' E 000°30'0 0.0
2015-Mar-24 06:32N 51°30' E 000°30'0 0.0
2015-Mar-24 05:29N 51°30' E 000°30'0 0.0
2015-Mar-24 04:32N 51°30' E 000°30'0 0.0
2015-Mar-24 03:29N 51°30' E 000°30'0 0.0
2015-Mar-24 02:32N 51°30' E 000°30'0 0.0
2015-Mar-24 01:32N 51°30' E 000°30'0 0.0
2015-Mar-24 00:32N 51°30' E 000°30'0 0.0
2015-Mar-23 23:32N 51°30' E 000°30'0 0.0
2015-Mar-23 22:32N 51°30' E 000°30'1 1.1
2015-Mar-23 21:33N 51°30' E 000°32'1010.3
2015-Mar-23 20:33N 51°29' E 000°48'1211.7
2015-Mar-23 19:33N 51°32' E 001°07'1515.2
2015-Mar-23 18:33N 51°41' E 001°26'1313.4
2015-Mar-23 17:33N 51°52' E 001°39'5 5.4
2015-Mar-23 16:33N 51°50' E 001°47'8 8.3
2015-Mar-23 15:33N 51°41' E 001°49'1010.4
2015-Mar-23 14:33N 51°33' E 001°39'5 4.6
2015-Mar-23 13:32N 51°33' E 001°31'0 0.1
2015-Mar-23 12:32N 51°33' E 001°31'0 0.1
2015-Mar-23 11:32N 51°32' E 001°31'0 0.0
2015-Mar-23 10:32N 51°32' E 001°31'0 0.1
2015-Mar-23 09:32N 51°32' E 001°31'0 0.4
2015-Mar-23 08:33N 51°33' E 001°32'10 9.7
2015-Mar-23 07:33N 51°30' E 001°47'1211.8
2015-Mar-23 06:34N 51°24' E 002°03'1111.3
2015-Mar-23 05:33N 51°21' E 002°20'1110.9
2015-Mar-23 04:33N 51°23' E 002°37'1211.6
2015-Mar-23 03:33N 51°23' E 002°56'1413.9
2015-Mar-23 02:34N 51°24' E 003°18'1111.2
2015-Mar-23 01:33N 51°26' E 003°36'1010.1
2015-Mar-23 00:34N 51°21' E 003°50'8 8.3
2015-Mar-22 23:34N 51°24' E 004°02'10 9.6
2015-Mar-22 22:34N 51°20' E 004°16'0 0.1
2015-Mar-22 21:33N 51°20' E 004°17'0 0.0
2015-Mar-22 20:33N 51°20' E 004°17'0 0.0
2015-Mar-22 19:33N 51°20' E 004°17'0 0.0
2015-Mar-22 18:33N 51°20' E 004°17'0 0.0
2015-Mar-22 17:33N 51°20' E 004°17'0 0.0
2015-Mar-22 16:33N 51°20' E 004°17'  

Dump ship's entire track history